Easley, SC (29642)

10:39 AM EDT on March 30, 2015 (GMT -0400)
Woodberry Circle | | Change Station
CLOSE
Current Station
Personal Weather Station
Location: Easley, SC
Elevation: 958 ft
Nearby Weather Stations

Elev 958 ft 34.81 °N, 82.57 °W | Updated 8 minutes ago

Mostly Cloudy
Mostly Cloudy
45.5 °F
Feels Like 46 °F
N
0.0
Wind Variable Wind from WSW
Gusts 3.0 mph

Today
High -- | Low -- °F
--% Chance of Precip.
Yesterday
High -- | Low -- °F
Precip. -- in
7:20 AM 7:49 PM
Waxing Gibbous, 80% visible
Pressure 30.11 in
Visibility 10.0 miles
Clouds Mostly Cloudy 600 ft
Overcast 4200 ft
Windchill 46 °F
Dew Point 45 °F
Humidity 96%
Rainfall 0.24 in
Snow Depth Not available.
UV 2 out of 12
Pollen 8.60 out of 12
Air Quality Not available.
Flu Activity Not available.
METAR KLQK 301435Z AUTO 23005KT 10SM BKN006 OVC042 08/07 A3011 RMK AO2 T00780073

More Conditions Fewer Conditions

Pressure 30.11 in
Visibility 10.0 miles
Clouds Mostly Cloudy 600 ft
Overcast 4200 ft
Windchill 46 °F
Dew Point 45 °F
Humidity 96%
Rainfall 0.24 in
Snow Depth Not available.
UV 2 out of 12
Pollen 8.60 out of 12
Air Quality Not available.
Flu Activity Not available.
METAR KLQK 301435Z AUTO 23005KT 10SM BKN006 OVC042 08/07 A3011 RMK AO2 T00780073

More Conditions Fewer Conditions

10-Day Weather Forecast

Almanac

Astronomy

Mar. 30, 2015 Rise Set
Actual Time
Civil Twilight
Nautical Twilight
Astronomical Twilight
Moon
Length of Visible Light
Length of Day
Tomorrow will be .
, % of the Moon is Illuminated

Today's Extremes

State Highs State Lows

Community

WunderPhotos

Upload Photos

1,809,506 photos uploaded!

WunderBlogs® & News

Nearby

Air Quality

  Air Quality AQ Index Pollutant
Not available.

Snow Depth

Station Depth Elevation

Earthquake Activity

City Distance Mag. Time & Date
Minimum magnitude displayed is 2.5.

Coastal Water Temperatures

Place Temperature

Stations

Nearby Weather Stations

Station Location Temp. Windchill Dew Point Humidity Wind Precip. Elev Updated Type